sensor_id;sensor_type;location;lat;lon;timestamp;P1;durP1;ratioP1;P2;durP2;ratioP2
80127;SDS011;69440;52.118;5.408;2023-07-16T00:00:26;3.78;;;1.30;;
80127;SDS011;69440;52.118;5.408;2023-07-16T00:02:52;4.57;;;1.40;;
80127;SDS011;69440;52.118;5.408;2023-07-16T00:05:19;3.20;;;1.13;;
80127;SDS011;69440;52.118;5.408;2023-07-16T00:07:46;5.43;;;1.58;;
80127;SDS011;69440;52.118;5.408;2023-07-16T00:10:12;9.18;;;1.60;;
80127;SDS011;69440;52.118;5.408;2023-07-16T00:12:39;4.88;;;1.58;;
80127;SDS011;69440;52.118;5.408;2023-07-16T00:15:05;6.40;;;1.65;;
80127;SDS011;69440;52.118;5.408;2023-07-16T00:17:33;7.35;;;1.60;;
80127;SDS011;69440;52.118;5.408;2023-07-16T00:20:00;5.35;;;1.50;;
80127;SDS011;69440;52.118;5.408;2023-07-16T00:22:27;5.90;;;1.70;;
80127;SDS011;69440;52.118;5.408;2023-07-16T00:24:53;5.95;;;1.45;;
80127;SDS011;69440;52.118;5.408;2023-07-16T00:27:20;4.72;;;1.80;;
80127;SDS011;69440;52.118;5.408;2023-07-16T00:29:46;5.80;;;1.70;;
80127;SDS011;69440;52.118;5.408;2023-07-16T00:32:13;6.05;;;1.73;;
80127;SDS011;69440;52.118;5.408;2023-07-16T00:34:39;5.55;;;2.00;;
80127;SDS011;69440;52.118;5.408;2023-07-16T00:37:06;5.72;;;1.70;;
80127;SDS011;69440;52.118;5.408;2023-07-16T00:39:32;5.93;;;1.65;;
80127;SDS011;69440;52.118;5.408;2023-07-16T00:41:59;6.95;;;1.50;;
80127;SDS011;69440;52.118;5.408;2023-07-16T00:44:25;6.50;;;1.67;;
80127;SDS011;69440;52.118;5.408;2023-07-16T00:46:52;8.57;;;1.63;;
80127;SDS011;69440;52.118;5.408;2023-07-16T00:49:18;4.40;;;1.67;;
80127;SDS011;69440;52.118;5.408;2023-07-16T00:51:45;6.28;;;1.65;;
80127;SDS011;69440;52.118;5.408;2023-07-16T00:54:12;4.88;;;1.85;;
80127;SDS011;69440;52.118;5.408;2023-07-16T00:56:39;6.57;;;1.77;;
80127;SDS011;69440;52.118;5.408;2023-07-16T00:59:05;4.97;;;1.75;;
80127;SDS011;69440;52.118;5.408;2023-07-16T01:01:32;5.38;;;1.58;;
80127;SDS011;69440;52.118;5.408;2023-07-16T01:03:58;6.95;;;2.03;;
80127;SDS011;69440;52.118;5.408;2023-07-16T01:06:26;5.30;;;1.60;;
80127;SDS011;69440;52.118;5.408;2023-07-16T01:09:02;6.20;;;1.58;;
80127;SDS011;69440;52.118;5.408;2023-07-16T01:11:46;8.25;;;1.60;;
80127;SDS011;69440;52.118;5.408;2023-07-16T01:14:16;4.10;;;1.60;;
80127;SDS011;69440;52.118;5.408;2023-07-16T01:17:45;6.72;;;1.85;;
80127;SDS011;69440;52.118;5.408;2023-07-16T01:20:12;4.80;;;1.70;;
80127;SDS011;69440;52.118;5.408;2023-07-16T01:22:44;9.45;;;2.60;;
80127;SDS011;69440;52.118;5.408;2023-07-16T01:31:00;8.38;;;2.30;;
80127;SDS011;69440;52.118;5.408;2023-07-16T01:33:27;5.70;;;1.98;;
80127;SDS011;69440;52.118;5.408;2023-07-16T01:35:54;5.95;;;2.33;;
80127;SDS011;69440;52.118;5.408;2023-07-16T01:38:22;6.78;;;2.50;;
80127;SDS011;69440;52.118;5.408;2023-07-16T01:40:49;6.55;;;1.88;;
80127;SDS011;69440;52.118;5.408;2023-07-16T01:43:16;8.82;;;2.42;;
80127;SDS011;69440;52.118;5.408;2023-07-16T01:45:42;8.40;;;1.98;;
80127;SDS011;69440;52.118;5.408;2023-07-16T01:50:58;5.57;;;2.00;;
80127;SDS011;69440;52.118;5.408;2023-07-16T01:53:25;5.50;;;1.90;;
80127;SDS011;69440;52.118;5.408;2023-07-16T01:55:51;9.98;;;2.88;;
80127;SDS011;69440;52.118;5.408;2023-07-16T01:58:18;8.25;;;2.63;;
80127;SDS011;69440;52.118;5.408;2023-07-16T02:00:44;7.70;;;2.22;;
80127;SDS011;69440;52.118;5.408;2023-07-16T02:03:12;7.65;;;2.47;;
80127;SDS011;69440;52.118;5.408;2023-07-16T02:05:38;9.05;;;3.13;;
80127;SDS011;69440;52.118;5.408;2023-07-16T02:08:05;8.68;;;2.78;;
80127;SDS011;69440;52.118;5.408;2023-07-16T02:10:31;9.63;;;2.38;;
80127;SDS011;69440;52.118;5.408;2023-07-16T02:12:58;9.35;;;2.50;;
80127;SDS011;69440;52.118;5.408;2023-07-16T02:15:24;5.93;;;2.60;;
80127;SDS011;69440;52.118;5.408;2023-07-16T02:17:51;6.78;;;2.60;;
80127;SDS011;69440;52.118;5.408;2023-07-16T02:20:17;9.48;;;3.08;;
80127;SDS011;69440;52.118;5.408;2023-07-16T02:22:44;6.50;;;2.42;;
80127;SDS011;69440;52.118;5.408;2023-07-16T02:25:10;9.02;;;3.15;;
80127;SDS011;69440;52.118;5.408;2023-07-16T02:27:37;9.32;;;2.53;;
80127;SDS011;69440;52.118;5.408;2023-07-16T02:30:03;8.45;;;2.72;;
80127;SDS011;69440;52.118;5.408;2023-07-16T02:32:32;8.77;;;2.58;;
80127;SDS011;69440;52.118;5.408;2023-07-16T02:34:59;11.05;;;3.10;;
80127;SDS011;69440;52.118;5.408;2023-07-16T02:37:26;8.27;;;3.03;;
80127;SDS011;69440;52.118;5.408;2023-07-16T02:39:53;8.88;;;2.45;;
80127;SDS011;69440;52.118;5.408;2023-07-16T02:42:19;5.55;;;2.25;;
80127;SDS011;69440;52.118;5.408;2023-07-16T02:44:46;8.25;;;2.75;;
80127;SDS011;69440;52.118;5.408;2023-07-16T02:47:12;11.45;;;2.63;;
80127;SDS011;69440;52.118;5.408;2023-07-16T02:49:39;10.90;;;2.63;;
80127;SDS011;69440;52.118;5.408;2023-07-16T02:52:06;9.10;;;2.90;;
80127;SDS011;69440;52.118;5.408;2023-07-16T02:54:34;5.50;;;2.50;;
80127;SDS011;69440;52.118;5.408;2023-07-16T02:57:01;7.43;;;2.33;;
80127;SDS011;69440;52.118;5.408;2023-07-16T02:59:28;6.07;;;3.10;;
80127;SDS011;69440;52.118;5.408;2023-07-16T03:01:54;8.70;;;2.55;;
80127;SDS011;69440;52.118;5.408;2023-07-16T03:04:21;5.85;;;2.03;;
80127;SDS011;69440;52.118;5.408;2023-07-16T03:06:48;5.35;;;2.53;;
80127;SDS011;69440;52.118;5.408;2023-07-16T03:09:14;6.10;;;2.40;;
80127;SDS011;69440;52.118;5.408;2023-07-16T03:11:41;6.43;;;2.30;;
80127;SDS011;69440;52.118;5.408;2023-07-16T03:14:07;7.93;;;2.90;;
80127;SDS011;69440;52.118;5.408;2023-07-16T03:16:34;7.70;;;2.15;;
80127;SDS011;69440;52.118;5.408;2023-07-16T03:19:00;9.90;;;2.13;;
80127;SDS011;69440;52.118;5.408;2023-07-16T03:21:29;8.20;;;2.55;;
80127;SDS011;69440;52.118;5.408;2023-07-16T03:23:55;7.18;;;2.47;;
80127;SDS011;69440;52.118;5.408;2023-07-16T03:26:22;6.53;;;2.40;;
80127;SDS011;69440;52.118;5.408;2023-07-16T03:28:48;6.85;;;2.90;;
80127;SDS011;69440;52.118;5.408;2023-07-16T03:31:15;9.15;;;2.60;;
80127;SDS011;69440;52.118;5.408;2023-07-16T03:33:41;6.78;;;2.20;;
80127;SDS011;69440;52.118;5.408;2023-07-16T03:36:08;7.20;;;2.13;;
80127;SDS011;69440;52.118;5.408;2023-07-16T03:38:34;7.47;;;2.20;;
80127;SDS011;69440;52.118;5.408;2023-07-16T03:41:01;5.15;;;2.20;;
80127;SDS011;69440;52.118;5.408;2023-07-16T03:43:28;6.90;;;2.40;;
80127;SDS011;69440;52.118;5.408;2023-07-16T03:45:54;8.65;;;2.60;;
80127;SDS011;69440;52.118;5.408;2023-07-16T03:48:21;6.30;;;2.13;;
80127;SDS011;69440;52.118;5.408;2023-07-16T03:50:48;5.43;;;2.00;;
80127;SDS011;69440;52.118;5.408;2023-07-16T03:53:14;6.95;;;2.63;;
80127;SDS011;69440;52.118;5.408;2023-07-16T03:55:40;9.02;;;2.60;;
80127;SDS011;69440;52.118;5.408;2023-07-16T03:58:07;5.43;;;2.28;;
80127;SDS011;69440;52.118;5.408;2023-07-16T04:00:33;6.75;;;2.08;;
80127;SDS011;69440;52.118;5.408;2023-07-16T04:03:00;10.30;;;2.38;;
80127;SDS011;69440;52.118;5.408;2023-07-16T04:05:27;7.95;;;2.15;;
80127;SDS011;69440;52.118;5.408;2023-07-16T04:07:53;7.75;;;2.47;;
80127;SDS011;69440;52.118;5.408;2023-07-16T04:10:20;7.88;;;2.65;;
80127;SDS011;69440;52.118;5.408;2023-07-16T04:12:46;8.80;;;2.40;;
80127;SDS011;69440;52.118;5.408;2023-07-16T04:15:13;8.32;;;2.63;;
80127;SDS011;69440;52.118;5.408;2023-07-16T04:17:39;6.70;;;2.65;;
80127;SDS011;69440;52.118;5.408;2023-07-16T04:20:06;7.70;;;2.45;;
80127;SDS011;69440;52.118;5.408;2023-07-16T04:22:33;6.32;;;2.70;;
80127;SDS011;69440;52.118;5.408;2023-07-16T04:25:01;6.70;;;2.75;;
80127;SDS011;69440;52.118;5.408;2023-07-16T04:27:27;6.45;;;2.58;;
80127;SDS011;69440;52.118;5.408;2023-07-16T04:29:54;7.85;;;2.85;;
80127;SDS011;69440;52.118;5.408;2023-07-16T04:32:21;9.02;;;2.58;;
80127;SDS011;69440;52.118;5.408;2023-07-16T04:34:48;8.23;;;2.92;;
80127;SDS011;69440;52.118;5.408;2023-07-16T04:37:14;9.38;;;3.03;;
80127;SDS011;69440;52.118;5.408;2023-07-16T04:39:40;8.23;;;3.17;;
80127;SDS011;69440;52.118;5.408;2023-07-16T04:42:07;11.25;;;3.17;;
80127;SDS011;69440;52.118;5.408;2023-07-16T04:44:34;8.63;;;3.03;;
80127;SDS011;69440;52.118;5.408;2023-07-16T04:47:00;10.75;;;2.97;;
80127;SDS011;69440;52.118;5.408;2023-07-16T04:49:26;8.35;;;3.25;;
80127;SDS011;69440;52.118;5.408;2023-07-16T04:51:53;6.32;;;2.97;;
80127;SDS011;69440;52.118;5.408;2023-07-16T04:54:19;7.75;;;2.70;;
80127;SDS011;69440;52.118;5.408;2023-07-16T04:56:46;8.05;;;2.83;;
80127;SDS011;69440;52.118;5.408;2023-07-16T04:59:12;8.48;;;2.85;;
80127;SDS011;69440;52.118;5.408;2023-07-16T05:01:39;8.00;;;2.78;;
80127;SDS011;69440;52.118;5.408;2023-07-16T05:04:05;10.85;;;2.65;;
80127;SDS011;69440;52.118;5.408;2023-07-16T05:06:32;8.65;;;2.70;;
80127;SDS011;69440;52.118;5.408;2023-07-16T05:08:58;7.18;;;2.72;;
80127;SDS011;69440;52.118;5.408;2023-07-16T05:11:25;5.97;;;2.95;;
80127;SDS011;69440;52.118;5.408;2023-07-16T05:13:52;7.55;;;2.88;;
80127;SDS011;69440;52.118;5.408;2023-07-16T05:16:18;7.63;;;2.92;;
80127;SDS011;69440;52.118;5.408;2023-07-16T05:18:45;10.00;;;3.55;;
80127;SDS011;69440;52.118;5.408;2023-07-16T05:21:13;9.43;;;2.90;;
80127;SDS011;69440;52.118;5.408;2023-07-16T05:23:40;8.75;;;3.15;;
80127;SDS011;69440;52.118;5.408;2023-07-16T05:26:06;7.60;;;2.90;;
80127;SDS011;69440;52.118;5.408;2023-07-16T05:28:33;7.00;;;2.72;;
80127;SDS011;69440;52.118;5.408;2023-07-16T05:31:00;6.57;;;2.88;;
80127;SDS011;69440;52.118;5.408;2023-07-16T05:33:27;8.00;;;2.90;;
80127;SDS011;69440;52.118;5.408;2023-07-16T05:35:54;8.93;;;3.30;;
80127;SDS011;69440;52.118;5.408;2023-07-16T05:38:21;7.53;;;3.10;;
80127;SDS011;69440;52.118;5.408;2023-07-16T05:40:48;8.00;;;3.20;;
80127;SDS011;69440;52.118;5.408;2023-07-16T05:43:14;6.95;;;3.35;;
80127;SDS011;69440;52.118;5.408;2023-07-16T05:45:41;10.52;;;3.40;;
80127;SDS011;69440;52.118;5.408;2023-07-16T05:48:07;7.05;;;3.25;;
80127;SDS011;69440;52.118;5.408;2023-07-16T05:50:34;6.82;;;3.03;;
80127;SDS011;69440;52.118;5.408;2023-07-16T05:53:00;9.48;;;3.45;;
80127;SDS011;69440;52.118;5.408;2023-07-16T05:55:27;9.40;;;3.22;;
80127;SDS011;69440;52.118;5.408;2023-07-16T05:57:56;7.53;;;2.95;;
80127;SDS011;69440;52.118;5.408;2023-07-16T06:00:23;7.85;;;3.00;;
80127;SDS011;69440;52.118;5.408;2023-07-16T06:02:50;7.10;;;3.30;;
80127;SDS011;69440;52.118;5.408;2023-07-16T06:05:17;9.15;;;3.45;;
80127;SDS011;69440;52.118;5.408;2023-07-16T06:07:44;10.13;;;3.35;;
80127;SDS011;69440;52.118;5.408;2023-07-16T06:10:10;8.52;;;3.50;;
80127;SDS011;69440;52.118;5.408;2023-07-16T06:12:37;10.48;;;4.00;;
80127;SDS011;69440;52.118;5.408;2023-07-16T06:15:03;9.23;;;3.78;;
80127;SDS011;69440;52.118;5.408;2023-07-16T06:17:30;10.85;;;3.70;;
80127;SDS011;69440;52.118;5.408;2023-07-16T06:19:57;10.73;;;3.63;;
80127;SDS011;69440;52.118;5.408;2023-07-16T06:22:24;8.05;;;3.17;;
80127;SDS011;69440;52.118;5.408;2023-07-16T06:24:50;9.57;;;4.90;;
80127;SDS011;69440;52.118;5.408;2023-07-16T06:27:16;9.70;;;3.50;;
80127;SDS011;69440;52.118;5.408;2023-07-16T06:29:43;10.10;;;3.70;;
80127;SDS011;69440;52.118;5.408;2023-07-16T06:32:10;8.77;;;3.38;;
80127;SDS011;69440;52.118;5.408;2023-07-16T06:34:36;11.50;;;3.60;;
80127;SDS011;69440;52.118;5.408;2023-07-16T06:37:03;10.98;;;3.42;;
80127;SDS011;69440;52.118;5.408;2023-07-16T06:39:30;8.60;;;3.55;;
80127;SDS011;69440;52.118;5.408;2023-07-16T06:41:57;9.52;;;3.50;;
80127;SDS011;69440;52.118;5.408;2023-07-16T06:44:23;10.43;;;3.58;;
80127;SDS011;69440;52.118;5.408;2023-07-16T06:46:50;7.63;;;3.30;;
80127;SDS011;69440;52.118;5.408;2023-07-16T06:49:16;9.52;;;3.25;;
80127;SDS011;69440;52.118;5.408;2023-07-16T06:51:43;11.88;;;3.92;;
80127;SDS011;69440;52.118;5.408;2023-07-16T06:54:09;11.48;;;4.15;;
80127;SDS011;69440;52.118;5.408;2023-07-16T06:56:36;9.10;;;3.97;;
80127;SDS011;69440;52.118;5.408;2023-07-16T06:59:02;9.10;;;3.10;;
80127;SDS011;69440;52.118;5.408;2023-07-16T07:01:29;10.77;;;3.80;;
80127;SDS011;69440;52.118;5.408;2023-07-16T07:03:56;11.38;;;3.28;;
80127;SDS011;69440;52.118;5.408;2023-07-16T07:06:22;8.98;;;3.83;;
80127;SDS011;69440;52.118;5.408;2023-07-16T07:08:51;8.07;;;3.55;;
80127;SDS011;69440;52.118;5.408;2023-07-16T07:11:18;6.93;;;3.75;;
80127;SDS011;69440;52.118;5.408;2023-07-16T07:13:44;7.82;;;3.22;;
80127;SDS011;69440;52.118;5.408;2023-07-16T07:16:11;9.88;;;3.55;;
80127;SDS011;69440;52.118;5.408;2023-07-16T07:18:38;9.07;;;3.60;;
80127;SDS011;69440;52.118;5.408;2023-07-16T07:21:04;8.93;;;3.47;;
80127;SDS011;69440;52.118;5.408;2023-07-16T07:23:31;9.02;;;3.33;;
80127;SDS011;69440;52.118;5.408;2023-07-16T07:25:57;6.47;;;3.30;;
80127;SDS011;69440;52.118;5.408;2023-07-16T07:28:24;6.88;;;3.50;;
80127;SDS011;69440;52.118;5.408;2023-07-16T07:30:50;6.55;;;3.22;;
80127;SDS011;69440;52.118;5.408;2023-07-16T07:33:17;7.40;;;3.35;;
80127;SDS011;69440;52.118;5.408;2023-07-16T07:35:43;8.38;;;3.58;;
80127;SDS011;69440;52.118;5.408;2023-07-16T07:38:10;8.25;;;3.72;;
80127;SDS011;69440;52.118;5.408;2023-07-16T07:40:36;8.90;;;3.65;;
80127;SDS011;69440;52.118;5.408;2023-07-16T07:43:03;9.25;;;3.15;;
80127;SDS011;69440;52.118;5.408;2023-07-16T07:45:29;9.48;;;3.83;;
80127;SDS011;69440;52.118;5.408;2023-07-16T07:47:56;7.43;;;3.33;;
80127;SDS011;69440;52.118;5.408;2023-07-16T07:50:22;6.38;;;3.08;;
80127;SDS011;69440;52.118;5.408;2023-07-16T07:52:50;10.02;;;3.30;;
80127;SDS011;69440;52.118;5.408;2023-07-16T07:55:16;8.18;;;3.60;;
80127;SDS011;69440;52.118;5.408;2023-07-16T07:57:42;8.63;;;3.47;;
80127;SDS011;69440;52.118;5.408;2023-07-16T08:00:09;9.55;;;3.47;;
80127;SDS011;69440;52.118;5.408;2023-07-16T08:02:38;9.65;;;3.47;;
80127;SDS011;69440;52.118;5.408;2023-07-16T08:05:05;8.57;;;3.63;;
80127;SDS011;69440;52.118;5.408;2023-07-16T08:07:32;8.15;;;3.10;;
80127;SDS011;69440;52.118;5.408;2023-07-16T08:09:59;10.45;;;3.40;;
80127;SDS011;69440;52.118;5.408;2023-07-16T08:12:25;12.45;;;3.95;;
80127;SDS011;69440;52.118;5.408;2023-07-16T08:14:52;7.00;;;3.40;;
80127;SDS011;69440;52.118;5.408;2023-07-16T08:17:18;8.13;;;3.40;;
80127;SDS011;69440;52.118;5.408;2023-07-16T08:19:49;7.85;;;3.80;;
80127;SDS011;69440;52.118;5.408;2023-07-16T08:22:15;9.40;;;4.15;;
80127;SDS011;69440;52.118;5.408;2023-07-16T08:24:42;9.63;;;5.00;;
80127;SDS011;69440;52.118;5.408;2023-07-16T08:27:08;11.88;;;4.13;;
80127;SDS011;69440;52.118;5.408;2023-07-16T08:29:35;9.63;;;3.40;;
80127;SDS011;69440;52.118;5.408;2023-07-16T08:32:02;9.05;;;3.70;;
80127;SDS011;69440;52.118;5.408;2023-07-16T08:34:29;8.60;;;3.30;;
80127;SDS011;69440;52.118;5.408;2023-07-16T08:36:55;7.35;;;3.53;;
80127;SDS011;69440;52.118;5.408;2023-07-16T08:39:22;9.38;;;3.92;;
80127;SDS011;69440;52.118;5.408;2023-07-16T08:41:51;10.10;;;4.13;;
80127;SDS011;69440;52.118;5.408;2023-07-16T08:44:18;9.93;;;3.60;;
80127;SDS011;69440;52.118;5.408;2023-07-16T08:46:45;7.85;;;3.50;;
80127;SDS011;69440;52.118;5.408;2023-07-16T08:49:12;9.05;;;3.70;;
80127;SDS011;69440;52.118;5.408;2023-07-16T08:51:38;7.15;;;3.42;;
80127;SDS011;69440;52.118;5.408;2023-07-16T08:54:06;8.43;;;4.03;;
80127;SDS011;69440;52.118;5.408;2023-07-16T08:56:32;9.13;;;3.65;;
80127;SDS011;69440;52.118;5.408;2023-07-16T08:58:59;9.10;;;4.03;;
80127;SDS011;69440;52.118;5.408;2023-07-16T09:01:26;9.57;;;4.07;;
80127;SDS011;69440;52.118;5.408;2023-07-16T09:03:53;9.15;;;3.72;;
80127;SDS011;69440;52.118;5.408;2023-07-16T09:06:20;9.68;;;4.20;;
80127;SDS011;69440;52.118;5.408;2023-07-16T09:08:47;8.75;;;3.75;;
80127;SDS011;69440;52.118;5.408;2023-07-16T09:11:13;10.50;;;3.78;;
80127;SDS011;69440;52.118;5.408;2023-07-16T09:13:43;11.88;;;4.00;;
80127;SDS011;69440;52.118;5.408;2023-07-16T09:16:10;10.25;;;3.83;;
80127;SDS011;69440;52.118;5.408;2023-07-16T09:18:39;9.15;;;3.80;;
80127;SDS011;69440;52.118;5.408;2023-07-16T09:21:06;7.40;;;3.80;;
80127;SDS011;69440;52.118;5.408;2023-07-16T09:23:33;7.45;;;3.47;;
80127;SDS011;69440;52.118;5.408;2023-07-16T09:26:00;11.02;;;4.18;;
80127;SDS011;69440;52.118;5.408;2023-07-16T09:28:26;8.90;;;3.63;;
80127;SDS011;69440;52.118;5.408;2023-07-16T09:30:53;8.93;;;3.90;;
80127;SDS011;69440;52.118;5.408;2023-07-16T09:33:20;10.98;;;3.83;;
80127;SDS011;69440;52.118;5.408;2023-07-16T09:35:49;6.55;;;3.58;;
80127;SDS011;69440;52.118;5.408;2023-07-16T09:38:16;6.53;;;2.97;;
80127;SDS011;69440;52.118;5.408;2023-07-16T09:40:44;6.15;;;2.92;;
80127;SDS011;69440;52.118;5.408;2023-07-16T09:43:11;8.27;;;3.17;;
80127;SDS011;69440;52.118;5.408;2023-07-16T09:45:39;8.25;;;3.22;;
80127;SDS011;69440;52.118;5.408;2023-07-16T09:48:06;7.78;;;3.20;;
80127;SDS011;69440;52.118;5.408;2023-07-16T09:50:33;9.38;;;3.63;;
80127;SDS011;69440;52.118;5.408;2023-07-16T09:53:01;7.95;;;3.60;;
80127;SDS011;69440;52.118;5.408;2023-07-16T09:55:33;9.32;;;3.28;;
80127;SDS011;69440;52.118;5.408;2023-07-16T09:58:02;8.52;;;3.22;;
80127;SDS011;69440;52.118;5.408;2023-07-16T10:00:33;9.05;;;3.53;;
80127;SDS011;69440;52.118;5.408;2023-07-16T10:03:01;7.32;;;3.20;;
80127;SDS011;69440;52.118;5.408;2023-07-16T10:05:28;7.50;;;3.53;;
80127;SDS011;69440;52.118;5.408;2023-07-16T10:07:56;10.38;;;3.22;;
80127;SDS011;69440;52.118;5.408;2023-07-16T10:10:27;4.78;;;3.13;;
80127;SDS011;69440;52.118;5.408;2023-07-16T10:13:06;8.52;;;3.47;;
80127;SDS011;69440;52.118;5.408;2023-07-16T10:15:34;7.68;;;3.60;;
80127;SDS011;69440;52.118;5.408;2023-07-16T10:18:01;6.50;;;3.35;;
80127;SDS011;69440;52.118;5.408;2023-07-16T10:20:28;7.03;;;3.33;;
80127;SDS011;69440;52.118;5.408;2023-07-16T10:22:56;9.43;;;3.25;;
80127;SDS011;69440;52.118;5.408;2023-07-16T10:25:24;10.02;;;3.58;;
80127;SDS011;69440;52.118;5.408;2023-07-16T10:27:52;9.40;;;3.67;;
80127;SDS011;69440;52.118;5.408;2023-07-16T10:30:20;11.63;;;3.75;;
80127;SDS011;69440;52.118;5.408;2023-07-16T10:32:47;8.63;;;3.50;;
80127;SDS011;69440;52.118;5.408;2023-07-16T10:35:14;6.28;;;3.17;;
80127;SDS011;69440;52.118;5.408;2023-07-16T10:37:40;9.38;;;3.50;;
80127;SDS011;69440;52.118;5.408;2023-07-16T10:40:10;8.70;;;3.28;;
80127;SDS011;69440;52.118;5.408;2023-07-16T10:42:41;8.32;;;3.45;;
80127;SDS011;69440;52.118;5.408;2023-07-16T10:45:13;9.13;;;3.30;;
80127;SDS011;69440;52.118;5.408;2023-07-16T10:47:40;9.20;;;3.35;;
80127;SDS011;69440;52.118;5.408;2023-07-16T10:50:19;6.70;;;3.88;;
80127;SDS011;69440;52.118;5.408;2023-07-16T10:52:51;6.95;;;3.25;;
80127;SDS011;69440;52.118;5.408;2023-07-16T10:57:47;9.07;;;2.95;;
80127;SDS011;69440;52.118;5.408;2023-07-16T11:00:15;10.07;;;3.50;;
80127;SDS011;69440;52.118;5.408;2023-07-16T11:02:43;8.43;;;3.35;;
80127;SDS011;69440;52.118;5.408;2023-07-16T11:05:10;6.43;;;2.75;;
80127;SDS011;69440;52.118;5.408;2023-07-16T11:07:37;9.00;;;3.38;;
80127;SDS011;69440;52.118;5.408;2023-07-16T11:10:04;7.88;;;3.35;;
80127;SDS011;69440;52.118;5.408;2023-07-16T11:12:31;7.57;;;3.30;;
80127;SDS011;69440;52.118;5.408;2023-07-16T11:14:57;9.75;;;3.47;;
80127;SDS011;69440;52.118;5.408;2023-07-16T11:17:24;7.40;;;3.40;;
80127;SDS011;69440;52.118;5.408;2023-07-16T11:19:52;8.35;;;3.58;;
80127;SDS011;69440;52.118;5.408;2023-07-16T11:22:19;10.85;;;3.60;;
80127;SDS011;69440;52.118;5.408;2023-07-16T11:24:50;6.78;;;3.30;;
80127;SDS011;69440;52.118;5.408;2023-07-16T11:27:18;8.85;;;3.22;;
80127;SDS011;69440;52.118;5.408;2023-07-16T11:29:50;8.32;;;2.60;;
80127;SDS011;69440;52.118;5.408;2023-07-16T11:34:57;7.38;;;2.97;;
80127;SDS011;69440;52.118;5.408;2023-07-16T11:37:24;8.02;;;2.90;;
80127;SDS011;69440;52.118;5.408;2023-07-16T11:39:56;9.15;;;3.10;;
80127;SDS011;69440;52.118;5.408;2023-07-16T11:44:57;5.75;;;2.90;;
80127;SDS011;69440;52.118;5.408;2023-07-16T11:47:25;6.07;;;2.60;;
80127;SDS011;69440;52.118;5.408;2023-07-16T11:49:52;6.50;;;2.70;;
80127;SDS011;69440;52.118;5.408;2023-07-16T11:52:20;6.85;;;2.60;;
80127;SDS011;69440;52.118;5.408;2023-07-16T11:54:47;7.28;;;2.80;;
80127;SDS011;69440;52.118;5.408;2023-07-16T11:57:14;3.65;;;1.98;;
80127;SDS011;69440;52.118;5.408;2023-07-16T11:59:42;6.63;;;2.47;;
80127;SDS011;69440;52.118;5.408;2023-07-16T12:02:08;3.90;;;1.60;;
80127;SDS011;69440;52.118;5.408;2023-07-16T12:04:35;4.18;;;1.80;;
80127;SDS011;69440;52.118;5.408;2023-07-16T12:07:02;10.80;;;1.90;;
80127;SDS011;69440;52.118;5.408;2023-07-16T12:09:28;2.78;;;1.40;;
80127;SDS011;69440;52.118;5.408;2023-07-16T12:11:55;2.80;;;1.50;;
80127;SDS011;69440;52.118;5.408;2023-07-16T12:14:22;6.03;;;1.42;;
80127;SDS011;69440;52.118;5.408;2023-07-16T12:16:48;13.07;;;2.78;;
80127;SDS011;69440;52.118;5.408;2023-07-16T12:19:15;5.65;;;1.90;;
80127;SDS011;69440;52.118;5.408;2023-07-16T12:21:42;3.03;;;1.60;;
80127;SDS011;69440;52.118;5.408;2023-07-16T12:24:08;4.07;;;1.60;;
80127;SDS011;69440;52.118;5.408;2023-07-16T12:26:35;4.72;;;1.75;;
80127;SDS011;69440;52.118;5.408;2023-07-16T12:29:01;3.53;;;1.50;;
80127;SDS011;69440;52.118;5.408;2023-07-16T12:31:31;4.25;;;1.60;;
80127;SDS011;69440;52.118;5.408;2023-07-16T12:33:58;3.03;;;1.50;;
80127;SDS011;69440;52.118;5.408;2023-07-16T12:36:26;4.47;;;1.80;;
80127;SDS011;69440;52.118;5.408;2023-07-16T12:38:53;4.53;;;1.63;;
80127;SDS011;69440;52.118;5.408;2023-07-16T12:41:19;3.85;;;1.77;;
80127;SDS011;69440;52.118;5.408;2023-07-16T12:43:46;4.68;;;1.60;;
80127;SDS011;69440;52.118;5.408;2023-07-16T12:46:13;4.63;;;1.45;;
80127;SDS011;69440;52.118;5.408;2023-07-16T12:48:40;3.25;;;1.80;;
80127;SDS011;69440;52.118;5.408;2023-07-16T12:51:08;4.80;;;1.60;;
80127;SDS011;69440;52.118;5.408;2023-07-16T12:53:34;3.72;;;1.73;;
80127;SDS011;69440;52.118;5.408;2023-07-16T12:56:01;6.57;;;1.38;;
80127;SDS011;69440;52.118;5.408;2023-07-16T12:58:27;4.75;;;1.50;;
80127;SDS011;69440;52.118;5.408;2023-07-16T13:00:53;4.03;;;1.40;;
80127;SDS011;69440;52.118;5.408;2023-07-16T13:03:20;3.55;;;1.35;;
80127;SDS011;69440;52.118;5.408;2023-07-16T13:05:47;5.82;;;2.10;;
80127;SDS011;69440;52.118;5.408;2023-07-16T13:08:14;2.05;;;1.20;;
80127;SDS011;69440;52.118;5.408;2023-07-16T13:10:40;3.28;;;1.13;;
80127;SDS011;69440;52.118;5.408;2023-07-16T13:13:08;3.40;;;1.58;;
80127;SDS011;69440;52.118;5.408;2023-07-16T13:15:34;3.42;;;1.20;;
80127;SDS011;69440;52.118;5.408;2023-07-16T13:18:01;5.55;;;1.60;;
80127;SDS011;69440;52.118;5.408;2023-07-16T13:20:28;2.90;;;1.02;;
80127;SDS011;69440;52.118;5.408;2023-07-16T13:22:56;3.70;;;1.15;;
80127;SDS011;69440;52.118;5.408;2023-07-16T13:25:23;4.40;;;1.33;;
80127;SDS011;69440;52.118;5.408;2023-07-16T13:27:50;3.55;;;1.10;;
80127;SDS011;69440;52.118;5.408;2023-07-16T13:30:16;4.70;;;1.30;;
80127;SDS011;69440;52.118;5.408;2023-07-16T13:32:43;4.18;;;1.25;;
80127;SDS011;69440;52.118;5.408;2023-07-16T13:35:10;4.90;;;1.40;;
80127;SDS011;69440;52.118;5.408;2023-07-16T13:37:36;17.30;;;2.22;;
80127;SDS011;69440;52.118;5.408;2023-07-16T13:40:03;3.92;;;1.13;;
80127;SDS011;69440;52.118;5.408;2023-07-16T13:42:30;4.60;;;1.05;;
80127;SDS011;69440;52.118;5.408;2023-07-16T13:44:56;6.90;;;1.90;;
80127;SDS011;69440;52.118;5.408;2023-07-16T13:47:23;3.30;;;1.10;;
80127;SDS011;69440;52.118;5.408;2023-07-16T13:49:50;3.25;;;1.00;;
80127;SDS011;69440;52.118;5.408;2023-07-16T13:52:17;4.25;;;1.10;;
80127;SDS011;69440;52.118;5.408;2023-07-16T13:54:44;4.65;;;1.40;;
80127;SDS011;69440;52.118;5.408;2023-07-16T13:57:10;4.32;;;1.10;;
80127;SDS011;69440;52.118;5.408;2023-07-16T13:59:37;5.50;;;1.20;;
80127;SDS011;69440;52.118;5.408;2023-07-16T14:02:03;5.13;;;1.17;;
80127;SDS011;69440;52.118;5.408;2023-07-16T14:04:30;3.47;;;1.15;;
80127;SDS011;69440;52.118;5.408;2023-07-16T14:06:58;2.25;;;0.90;;
80127;SDS011;69440;52.118;5.408;2023-07-16T14:09:25;2.50;;;1.00;;
80127;SDS011;69440;52.118;5.408;2023-07-16T14:11:52;2.75;;;1.20;;
80127;SDS011;69440;52.118;5.408;2023-07-16T14:14:18;3.90;;;1.13;;
80127;SDS011;69440;52.118;5.408;2023-07-16T14:16:45;7.80;;;1.40;;
80127;SDS011;69440;52.118;5.408;2023-07-16T14:19:11;4.43;;;1.38;;
80127;SDS011;69440;52.118;5.408;2023-07-16T14:21:38;4.68;;;1.13;;
80127;SDS011;69440;52.118;5.408;2023-07-16T14:24:05;4.82;;;1.13;;
80127;SDS011;69440;52.118;5.408;2023-07-16T14:26:32;4.90;;;1.08;;
80127;SDS011;69440;52.118;5.408;2023-07-16T14:29:00;3.25;;;1.00;;
80127;SDS011;69440;52.118;5.408;2023-07-16T14:31:26;3.70;;;1.00;;
80127;SDS011;69440;52.118;5.408;2023-07-16T14:33:53;3.15;;;1.35;;
80127;SDS011;69440;52.118;5.408;2023-07-16T14:36:19;2.42;;;1.17;;
80127;SDS011;69440;52.118;5.408;2023-07-16T14:38:48;4.90;;;1.52;;
80127;SDS011;69440;52.118;5.408;2023-07-16T14:41:14;4.03;;;1.05;;
80127;SDS011;69440;52.118;5.408;2023-07-16T14:43:41;6.30;;;1.30;;
80127;SDS011;69440;52.118;5.408;2023-07-16T14:46:07;5.32;;;1.45;;
80127;SDS011;69440;52.118;5.408;2023-07-16T14:48:35;3.58;;;1.52;;
80127;SDS011;69440;52.118;5.408;2023-07-16T14:51:01;3.55;;;1.23;;
80127;SDS011;69440;52.118;5.408;2023-07-16T14:53:29;6.05;;;1.63;;
80127;SDS011;69440;52.118;5.408;2023-07-16T14:55:56;2.95;;;1.00;;
80127;SDS011;69440;52.118;5.408;2023-07-16T14:58:22;6.45;;;1.65;;
80127;SDS011;69440;52.118;5.408;2023-07-16T15:00:49;5.03;;;1.50;;